Time;durP1;ratioP1;P1;durP2;ratioP2;P2;SDS_P1;SDS_P2;PMS_P1;PMS_P2;Temp;Humidity;BMP_temperature;BMP_pressure;BME280_temperature;BME280_humidity;BME280_pressure;Samples;Min_cycle;Max_cycle;Signal;HPM_P1;HPM_P2
2023/01/07 00:01:28;;;;;;;15.40;10.77;;;12.40;98.60;;;;;;5036631;28;20036;-72
2023/01/07 00:03:55;;;;;;;17.15;11.75;;;12.40;99.00;;;;;;5034698;28;20060;-72
2023/01/07 00:06:24;;;;;;;13.60;10.60;;;12.30;99.00;;;;;;5029298;28;20032;-72
2023/01/07 00:08:54;;;;;;;16.02;12.73;;;12.30;98.90;;;;;;5025933;28;20074;-72
2023/01/07 00:11:24;;;;;;;16.02;9.25;;;12.30;98.90;;;;;;5039368;28;20395;-72
2023/01/07 00:13:51;;;;;;;14.75;11.30;;;12.30;98.90;;;;;;5039706;28;21680;-72
2023/01/07 00:16:19;;;;;;;14.60;11.10;;;12.30;98.90;;;;;;5040833;28;20025;-72
2023/01/07 00:18:45;;;;;;;16.02;11.30;;;12.30;98.90;;;;;;5013787;28;20861;-72
2023/01/07 00:21:13;;;;;;;13.55;10.50;;;12.30;99.10;;;;;;5039150;28;20074;-72
2023/01/07 00:23:41;;;;;;;15.35;10.25;;;12.20;98.50;;;;;;5038305;28;20084;-72
2023/01/07 00:26:13;;;;;;;11.80;8.73;;;12.20;98.90;;;;;;5040771;28;20112;-72
2023/01/07 00:28:41;;;;;;;12.00;9.63;;;12.20;98.70;;;;;;5038726;28;20491;-72
2023/01/07 00:31:09;;;;;;;16.20;11.30;;;12.10;98.90;;;;;;5041326;28;20025;-72
2023/01/07 00:33:40;;;;;;;10.45;7.45;;;12.10;99.10;;;;;;5041393;28;20024;-72
2023/01/07 00:36:08;;;;;;;13.00;9.73;;;12.10;98.90;;;;;;5040361;28;20854;-73
2023/01/07 00:38:35;;;;;;;14.32;8.70;;;12.20;98.90;;;;;;5043535;28;20076;-73
2023/01/07 00:41:01;;;;;;;11.77;9.57;;;12.20;99.10;;;;;;5044747;28;20547;-72
2023/01/07 00:43:26;;;;;;;13.85;8.48;;;12.10;99.00;;;;;;5039509;28;20033;-72
2023/01/07 00:45:53;;;;;;;12.88;10.15;;;12.10;98.90;;;;;;5026429;28;20045;-73
2023/01/07 00:48:18;;;;;;;12.88;8.13;;;12.10;98.90;;;;;;5046208;28;20044;-73
2023/01/07 00:50:47;;;;;;;12.77;9.00;;;12.10;98.70;;;;;;5040838;28;20068;-72
2023/01/07 00:53:13;;;;;;;12.55;8.48;;;12.10;98.60;;;;;;5016372;28;20025;-73
2023/01/07 00:55:39;;;;;;;14.50;9.73;;;12.10;98.60;;;;;;5040828;28;20032;-72
2023/01/07 00:58:05;;;;;;;15.90;10.60;;;12.20;98.40;;;;;;5039270;28;20041;-73
2023/01/07 01:00:31;;;;;;;9.95;6.80;;;12.10;98.40;;;;;;5037928;28;20029;-72
2023/01/07 01:02:58;;;;;;;14.27;9.80;;;12.10;98.40;;;;;;5035603;28;20037;-73
2023/01/07 01:05:24;;;;;;;12.77;10.38;;;12.10;98.50;;;;;;5043010;28;20484;-72
2023/01/07 01:07:50;;;;;;;12.35;8.05;;;12.10;98.60;;;;;;5041270;28;20040;-72
2023/01/07 01:10:18;;;;;;;17.25;10.10;;;12.10;98.60;;;;;;5042386;28;20032;-72
2023/01/07 01:12:45;;;;;;;13.00;8.88;;;12.10;98.50;;;;;;5039417;28;20070;-73
2023/01/07 01:15:15;;;;;;;10.40;7.72;;;12.10;98.40;;;;;;5040389;28;20522;-72
2023/01/07 01:17:41;;;;;;;11.13;6.40;;;12.10;98.30;;;;;;5037612;28;20022;-73
2023/01/07 01:20:09;;;;;;;13.57;9.57;;;12.10;97.90;;;;;;5035394;28;20056;-72
2023/01/07 01:22:35;;;;;;;15.77;10.63;;;12.10;98.20;;;;;;5031163;28;20293;-72
2023/01/07 01:25:01;;;;;;;13.90;9.93;;;12.10;98.30;;;;;;5037894;28;20549;-72
2023/01/07 01:27:30;;;;;;;16.27;10.65;;;12.10;98.20;;;;;;5037799;28;20047;-72
2023/01/07 01:29:57;;;;;;;16.25;10.93;;;12.20;98.10;;;;;;5034156;28;20069;-72
2023/01/07 01:32:23;;;;;;;11.63;9.25;;;12.10;97.80;;;;;;5016638;28;20044;-72
2023/01/07 01:34:49;;;;;;;13.00;9.18;;;12.10;98.00;;;;;;5041573;28;20053;-71
2023/01/07 01:37:15;;;;;;;12.23;8.43;;;12.10;98.10;;;;;;5032614;28;20029;-72
2023/01/07 01:39:41;;;;;;;12.07;8.27;;;12.10;98.00;;;;;;5031164;28;20021;-72
2023/01/07 01:42:12;;;;;;;11.32;8.20;;;12.10;97.90;;;;;;5032974;28;20032;-73
2023/01/07 01:44:54;;;;;;;13.35;8.27;;;12.10;98.00;;;;;;5033566;28;20134;-72
2023/01/07 01:47:41;;;;;;;11.95;8.82;;;12.10;98.10;;;;;;5030873;28;20025;-73
2023/01/07 01:50:20;;;;;;;13.45;9.73;;;12.10;98.20;;;;;;5036756;28;20503;-72
2023/01/07 01:52:52;;;;;;;13.83;8.70;;;12.10;98.10;;;;;;5039959;28;20483;-71
2023/01/07 01:55:26;;;;;;;10.13;7.03;;;12.10;97.80;;;;;;5020549;28;20029;-71
2023/01/07 01:57:58;;;;;;;10.80;7.35;;;12.10;98.10;;;;;;5021721;28;20033;-71
2023/01/07 02:00:24;;;;;;;13.07;8.10;;;12.10;98.00;;;;;;5023952;28;20018;-71
2023/01/07 02:02:55;;;;;;;12.50;8.60;;;12.10;97.80;;;;;;5031194;28;20037;-71
2023/01/07 02:05:23;;;;;;;9.18;5.55;;;12.10;97.80;;;;;;5041825;28;20170;-71
2023/01/07 02:07:49;;;;;;;10.30;7.10;;;12.20;97.70;;;;;;5039955;28;20036;-72
2023/01/07 02:10:20;;;;;;;10.18;7.35;;;12.10;97.70;;;;;;5037430;28;20028;-71
2023/01/07 02:12:53;;;;;;;11.80;6.97;;;12.10;97.60;;;;;;5036801;28;20021;-72
2023/01/07 02:15:53;;;;;;;12.05;6.95;;;12.20;97.80;;;;;;5033455;28;20734;-72
2023/01/07 02:18:31;;;;;;;10.23;7.50;;;12.10;97.60;;;;;;5038813;28;20047;-73
2023/01/07 02:21:16;;;;;;;13.15;7.13;;;12.10;97.70;;;;;;5040654;28;20476;-72
2023/01/07 02:24:26;;;;;;;12.02;7.43;;;12.10;97.70;;;;;;5037257;28;20100;-72
2023/01/07 02:27:10;;;;;;;8.73;5.20;;;12.00;97.70;;;;;;5013664;28;20040;-73
2023/01/07 02:29:59;;;;;;;10.00;5.47;;;12.10;97.60;;;;;;5020898;28;20049;-72
2023/01/07 02:32:25;;;;;;;14.95;8.63;;;12.00;97.50;;;;;;5039849;28;20032;-72
2023/01/07 02:35:10;;;;;;;7.80;5.20;;;12.10;97.60;;;;;;5035912;28;20028;-72
2023/01/07 02:37:55;;;;;;;12.73;7.35;;;12.10;97.30;;;;;;5033939;28;20036;-72
2023/01/07 02:40:42;;;;;;;11.00;7.70;;;12.10;97.40;;;;;;5033921;28;20064;-73
2023/01/07 02:43:26;;;;;;;10.43;6.05;;;12.10;97.60;;;;;;5019428;28;20056;-73
2023/01/07 02:46:29;;;;;;;10.73;7.57;;;12.10;97.40;;;;;;5033162;28;20087;-72
2023/01/07 02:49:03;;;;;;;11.43;5.50;;;12.10;97.40;;;;;;5031094;28;20049;-74
2023/01/07 02:51:34;;;;;;;8.55;4.95;;;12.10;97.30;;;;;;5028731;28;20391;-72
2023/01/07 02:54:00;;;;;;;8.70;4.38;;;12.10;97.00;;;;;;5039320;28;20833;-71
2023/01/07 02:56:29;;;;;;;14.60;7.68;;;12.10;97.00;;;;;;5036486;28;20032;-71
2023/01/07 02:59:06;;;;;;;13.27;7.00;;;12.00;97.40;;;;;;5037256;28;20060;-71
2023/01/07 03:01:47;;;;;;;11.65;7.53;;;12.00;97.70;;;;;;5040576;28;20060;-72
2023/01/07 03:04:18;;;;;;;10.80;6.13;;;12.00;97.60;;;;;;5031102;28;20108;-71
2023/01/07 03:07:20;;;;;;;8.40;5.63;;;12.00;97.50;;;;;;5036152;28;20956;-71
2023/01/07 03:09:55;;;;;;;8.63;5.70;;;12.10;97.30;;;;;;5034692;28;20736;-72
2023/01/07 03:12:41;;;;;;;14.88;6.10;;;12.10;97.10;;;;;;5037394;28;20026;-72
2023/01/07 03:15:10;;;;;;;8.05;5.63;;;12.00;97.20;;;;;;5033482;28;20450;-72
2023/01/07 03:17:42;;;;;;;8.90;5.88;;;12.00;97.20;;;;;;5010196;28;20025;-72
2023/01/07 03:20:10;;;;;;;17.38;8.43;;;12.10;97.30;;;;;;5033657;28;20037;-73
2023/01/07 03:22:38;;;;;;;9.00;5.55;;;12.00;97.40;;;;;;5038730;28;20033;-73
2023/01/07 03:25:05;;;;;;;9.95;5.35;;;12.00;97.20;;;;;;5034285;28;20052;-72
2023/01/07 03:27:34;;;;;;;9.60;6.25;;;12.00;97.20;;;;;;5043564;28;20028;-72
2023/01/07 03:30:03;;;;;;;6.32;3.75;;;12.00;97.20;;;;;;5036850;28;21000;-72
2023/01/07 03:32:36;;;;;;;9.68;5.95;;;12.00;96.90;;;;;;5039211;28;20025;-72
2023/01/07 03:35:02;;;;;;;10.10;5.68;;;11.90;97.20;;;;;;5040275;28;20025;-72
2023/01/07 03:37:29;;;;;;;7.05;4.55;;;11.90;97.10;;;;;;5035074;28;20037;-72
2023/01/07 03:39:55;;;;;;;9.20;4.30;;;11.90;97.40;;;;;;5011407;28;20083;-72
2023/01/07 03:42:41;;;;;;;7.32;5.03;;;11.90;96.90;;;;;;5034375;28;20087;-73
2023/01/07 03:45:11;;;;;;;10.88;6.00;;;11.90;96.90;;;;;;5036582;28;20032;-72
2023/01/07 03:47:39;;;;;;;10.77;5.97;;;11.90;96.80;;;;;;5016668;28;20492;-73
2023/01/07 03:50:05;;;;;;;11.48;5.32;;;11.90;96.90;;;;;;5040148;28;20029;-72
2023/01/07 03:52:31;;;;;;;12.52;6.10;;;11.90;97.00;;;;;;5013592;28;20036;-72
2023/01/07 03:54:57;;;;;;;6.57;3.35;;;11.90;97.10;;;;;;5034130;28;20037;-72
2023/01/07 03:57:22;;;;;;;8.55;4.68;;;11.90;96.70;;;;;;5015769;28;20076;-72
2023/01/07 03:59:48;;;;;;;6.45;3.20;;;11.90;96.70;;;;;;5040059;28;20025;-72
2023/01/07 04:02:14;;;;;;;6.28;3.40;;;11.90;96.60;;;;;;5034747;28;20111;-72
2023/01/07 04:04:39;;;;;;;6.93;4.30;;;11.90;96.60;;;;;;5048794;28;20763;-72
2023/01/07 04:07:05;;;;;;;8.63;4.47;;;11.90;96.70;;;;;;5036434;28;20040;-72
2023/01/07 04:09:31;;;;;;;9.77;5.70;;;11.90;96.80;;;;;;5041278;28;20036;-72
2023/01/07 04:11:56;;;;;;;9.95;5.35;;;11.90;96.70;;;;;;5041467;28;20495;-72
2023/01/07 04:14:22;;;;;;;7.22;4.63;;;11.90;96.70;;;;;;5042104;28;20116;-71
2023/01/07 04:16:50;;;;;;;8.05;3.72;;;11.90;96.70;;;;;;5037693;28;20037;-71
2023/01/07 04:19:16;;;;;;;8.32;4.68;;;11.90;96.80;;;;;;5040579;28;20048;-71
2023/01/07 04:21:42;;;;;;;8.02;5.10;;;11.80;96.60;;;;;;5041583;28;20099;-71
2023/01/07 04:24:09;;;;;;;10.38;5.13;;;11.80;96.60;;;;;;5038714;28;20191;-71
2023/01/07 04:26:34;;;;;;;5.32;3.20;;;11.80;96.70;;;;;;5040292;28;20045;-71
2023/01/07 04:29:00;;;;;;;8.07;4.82;;;11.70;96.70;;;;;;5043306;28;20047;-71
2023/01/07 04:31:26;;;;;;;10.45;5.55;;;11.70;96.70;;;;;;5041904;28;20688;-71
2023/01/07 04:33:52;;;;;;;8.20;4.57;;;11.70;97.00;;;;;;5036346;28;20029;-72
2023/01/07 04:36:18;;;;;;;5.25;3.45;;;11.70;96.70;;;;;;5035310;28;20060;-72
2023/01/07 04:38:43;;;;;;;7.38;4.38;;;11.70;96.80;;;;;;5040603;28;20116;-71
2023/01/07 04:41:09;;;;;;;7.30;3.70;;;11.60;97.00;;;;;;5047225;28;20020;-72
2023/01/07 04:43:35;;;;;;;9.45;5.53;;;11.70;97.10;;;;;;5033377;28;20854;-71
2023/01/07 04:46:02;;;;;;;8.35;4.80;;;11.60;97.30;;;;;;5039113;28;20021;-71
2023/01/07 04:48:28;;;;;;;10.98;5.63;;;11.60;97.30;;;;;;5039159;28;20056;-71
2023/01/07 04:50:54;;;;;;;7.28;4.95;;;11.60;97.10;;;;;;5041314;28;20025;-73
2023/01/07 04:53:20;;;;;;;10.15;4.57;;;11.60;97.00;;;;;;5042105;28;20029;-73
2023/01/07 04:55:45;;;;;;;6.88;4.15;;;11.60;96.90;;;;;;5044096;28;20124;-71
2023/01/07 04:58:11;;;;;;;8.85;5.18;;;11.60;97.00;;;;;;5036868;28;20087;-70
2023/01/07 05:00:37;;;;;;;7.63;4.40;;;11.60;97.00;;;;;;5046498;28;20029;-71
2023/01/07 05:03:02;;;;;;;8.18;4.45;;;11.50;97.10;;;;;;5038545;28;20029;-72
2023/01/07 05:05:28;;;;;;;8.23;3.88;;;11.60;97.20;;;;;;5045594;28;20025;-72
2023/01/07 05:07:54;;;;;;;9.35;4.72;;;11.60;97.20;;;;;;5019083;28;20065;-72
2023/01/07 05:10:19;;;;;;;6.78;3.67;;;11.60;97.30;;;;;;5040173;28;20509;-73
2023/01/07 05:12:45;;;;;;;7.38;4.40;;;11.60;97.10;;;;;;5039939;28;20025;-73
2023/01/07 05:15:11;;;;;;;11.52;4.85;;;11.60;97.00;;;;;;5039150;28;20029;-72
2023/01/07 05:17:37;;;;;;;8.52;3.60;;;11.60;97.10;;;;;;5042129;28;20037;-72
2023/01/07 05:20:04;;;;;;;6.70;3.28;;;11.60;96.70;;;;;;5031384;28;20018;-72
2023/01/07 05:22:29;;;;;;;5.03;2.83;;;11.60;96.80;;;;;;5038474;28;20072;-72
2023/01/07 05:24:55;;;;;;;4.47;2.55;;;11.60;96.70;;;;;;5031561;28;20487;-72
2023/01/07 05:27:21;;;;;;;6.90;2.90;;;11.60;96.70;;;;;;5041359;28;20053;-74
2023/01/07 05:29:46;;;;;;;7.93;4.05;;;11.60;96.70;;;;;;5038869;28;20104;-72
2023/01/07 05:32:12;;;;;;;4.78;2.92;;;11.70;96.80;;;;;;5038294;28;20486;-73
2023/01/07 05:34:37;;;;;;;7.30;2.55;;;11.60;96.80;;;;;;5031996;28;20818;-72
2023/01/07 05:37:03;;;;;;;8.50;4.50;;;11.70;96.60;;;;;;5032323;28;20037;-71
2023/01/07 05:39:28;;;;;;;5.60;2.85;;;11.60;96.80;;;;;;5034157;28;20027;-71
2023/01/07 05:41:54;;;;;;;8.07;4.05;;;11.60;96.80;;;;;;5039047;28;20032;-72
2023/01/07 05:44:20;;;;;;;5.88;3.33;;;11.60;96.70;;;;;;5034874;28;20021;-72
2023/01/07 05:46:45;;;;;;;8.85;4.32;;;11.60;96.90;;;;;;5035194;28;20029;-72
2023/01/07 05:49:11;;;;;;;10.00;3.15;;;11.60;97.10;;;;;;5031100;28;20048;-73
2023/01/07 05:51:37;;;;;;;7.90;3.33;;;11.70;96.90;;;;;;5019620;28;20047;-71
2023/01/07 05:54:02;;;;;;;7.30;3.58;;;11.70;96.50;;;;;;5037255;28;20097;-71
2023/01/07 05:56:28;;;;;;;5.07;2.78;;;11.70;96.60;;;;;;5036921;28;20022;-72
2023/01/07 05:58:53;;;;;;;5.60;2.90;;;11.70;96.40;;;;;;5033756;28;20116;-72
2023/01/07 06:01:20;;;;;;;4.90;2.85;;;11.70;96.50;;;;;;5038149;28;20033;-72
2023/01/07 06:03:46;;;;;;;5.55;3.10;;;11.70;96.40;;;;;;5036213;28;20542;-72
2023/01/07 06:06:11;;;;;;;7.20;3.40;;;11.70;96.50;;;;;;5036818;28;20027;-72
2023/01/07 06:08:37;;;;;;;9.00;3.70;;;11.70;96.60;;;;;;5042693;28;20096;-71
2023/01/07 06:11:04;;;;;;;6.05;3.15;;;11.70;96.60;;;;;;5042502;28;20159;-71
2023/01/07 06:13:30;;;;;;;6.13;2.53;;;11.80;96.50;;;;;;5042250;28;20021;-71
2023/01/07 06:16:04;;;;;;;5.45;2.63;;;11.70;96.40;;;;;;5012764;28;20433;-72
2023/01/07 06:18:30;;;;;;;7.82;3.20;;;11.70;96.30;;;;;;5041105;28;20525;-72
2023/01/07 06:20:55;;;;;;;8.52;3.85;;;11.70;96.50;;;;;;5041215;28;20032;-72
2023/01/07 06:23:21;;;;;;;5.88;2.70;;;11.70;96.40;;;;;;5040574;28;20061;-72
2023/01/07 06:25:47;;;;;;;6.80;2.67;;;11.70;96.40;;;;;;5035684;28;20041;-73
2023/01/07 06:28:13;;;;;;;6.53;3.67;;;11.70;96.30;;;;;;5043184;28;20023;-71
2023/01/07 06:30:38;;;;;;;7.78;3.00;;;11.70;96.30;;;;;;5035152;28;20433;-71
2023/01/07 06:33:04;;;;;;;7.57;2.97;;;11.70;96.30;;;;;;5041846;28;20078;-72
2023/01/07 06:35:31;;;;;;;5.25;3.13;;;11.70;96.30;;;;;;5031258;28;20151;-72
2023/01/07 06:37:56;;;;;;;4.53;2.22;;;11.70;96.30;;;;;;5043659;28;20503;-72
2023/01/07 06:40:23;;;;;;;3.97;2.38;;;11.70;95.80;;;;;;5035968;28;20044;-71
2023/01/07 06:42:49;;;;;;;6.43;2.55;;;11.80;95.90;;;;;;5033527;28;20064;-72
2023/01/07 06:45:14;;;;;;;4.00;1.98;;;11.70;95.70;;;;;;5038165;28;20484;-72
2023/01/07 06:47:40;;;;;;;4.40;2.22;;;11.70;95.60;;;;;;5013599;28;20030;-73
2023/01/07 06:50:06;;;;;;;7.10;3.00;;;11.70;95.50;;;;;;5038846;28;20028;-71
2023/01/07 06:52:32;;;;;;;5.25;2.03;;;11.80;95.70;;;;;;5032899;28;20025;-71
2023/01/07 06:54:58;;;;;;;5.35;2.38;;;11.80;95.30;;;;;;5017011;28;20029;-72
2023/01/07 06:57:24;;;;;;;4.88;2.30;;;11.80;95.20;;;;;;5036320;28;20391;-72
2023/01/07 06:59:49;;;;;;;4.65;2.20;;;11.80;95.10;;;;;;5019517;28;20027;-73
2023/01/07 07:02:24;;;;;;;8.07;2.65;;;11.80;95.00;;;;;;5035612;28;20034;-72
2023/01/07 07:04:49;;;;;;;3.65;1.70;;;11.80;94.90;;;;;;5029470;28;20074;-73
2023/01/07 07:07:16;;;;;;;9.15;2.47;;;11.80;94.90;;;;;;5032752;28;20028;-73
2023/01/07 07:09:41;;;;;;;4.50;2.20;;;11.80;94.80;;;;;;5036601;28;20055;-73
2023/01/07 07:12:08;;;;;;;3.70;1.95;;;11.80;94.70;;;;;;5032791;28;20018;-72
2023/01/07 07:14:33;;;;;;;4.70;1.77;;;11.80;94.90;;;;;;5034988;28;20029;-72
2023/01/07 07:16:59;;;;;;;6.32;1.95;;;11.80;94.70;;;;;;5038138;28;20447;-72
2023/01/07 07:19:25;;;;;;;4.82;1.50;;;11.80;94.60;;;;;;5033052;28;20025;-72
2023/01/07 07:21:50;;;;;;;6.45;1.67;;;11.80;94.50;;;;;;5032589;28;20468;-72
2023/01/07 07:24:16;;;;;;;5.03;1.83;;;11.80;94.50;;;;;;5030472;28;20025;-72
2023/01/07 07:26:42;;;;;;;5.80;2.63;;;11.80;94.40;;;;;;5044589;28;20231;-72
2023/01/07 07:29:08;;;;;;;5.45;2.30;;;11.90;94.50;;;;;;5034672;28;20064;-72
2023/01/07 07:31:34;;;;;;;4.60;1.90;;;11.80;94.10;;;;;;5030008;28;20056;-73
2023/01/07 07:34:00;;;;;;;3.88;1.90;;;11.90;94.30;;;;;;5012841;28;20503;-72
2023/01/07 07:36:25;;;;;;;4.50;2.10;;;11.90;94.30;;;;;;5035175;28;20679;-72
2023/01/07 07:38:51;;;;;;;6.50;2.08;;;11.90;94.20;;;;;;5035816;28;20120;-72
2023/01/07 07:41:16;;;;;;;6.35;2.08;;;11.90;94.30;;;;;;5038882;28;20060;-72
2023/01/07 07:43:42;;;;;;;5.70;1.77;;;11.90;94.20;;;;;;5035463;28;20083;-72
2023/01/07 07:46:07;;;;;;;3.53;1.85;;;11.90;94.20;;;;;;5042176;28;20484;-71
2023/01/07 07:48:33;;;;;;;4.15;1.88;;;11.80;93.90;;;;;;5023003;28;20029;-72
2023/01/07 07:50:59;;;;;;;4.38;1.90;;;11.80;94.10;;;;;;5036733;28;20038;-72
2023/01/07 07:53:25;;;;;;;3.30;1.60;;;11.80;94.10;;;;;;5040341;28;20032;-71
2023/01/07 07:55:52;;;;;;;5.80;1.67;;;11.80;94.10;;;;;;5029862;28;20021;-71
2023/01/07 07:58:17;;;;;;;3.78;2.05;;;11.90;94.10;;;;;;5037577;28;20160;-71
2023/01/07 08:00:43;;;;;;;4.53;1.75;;;11.80;93.40;;;;;;5035528;28;20116;-72
2023/01/07 08:03:09;;;;;;;5.10;2.20;;;11.80;93.70;;;;;;5032268;28;20029;-73
2023/01/07 08:05:38;;;;;;;2.88;1.67;;;11.80;93.60;;;;;;5016265;28;20116;-72
2023/01/07 08:08:04;;;;;;;4.10;1.52;;;11.90;93.70;;;;;;5030150;28;20026;-72
2023/01/07 08:10:30;;;;;;;3.78;1.20;;;11.90;93.70;;;;;;5033715;28;20029;-72
2023/01/07 08:12:55;;;;;;;2.28;1.30;;;11.80;93.80;;;;;;5023117;28;20029;-72
2023/01/07 08:15:21;;;;;;;13.25;2.35;;;11.90;93.80;;;;;;5034438;28;20034;-72
2023/01/07 08:17:46;;;;;;;2.95;1.50;;;12.00;93.60;;;;;;5038139;28;20038;-72
2023/01/07 08:20:12;;;;;;;4.35;1.85;;;11.90;93.30;;;;;;5036007;28;20531;-74
2023/01/07 08:22:38;;;;;;;3.70;1.67;;;11.90;93.10;;;;;;5041288;28;20437;-72
2023/01/07 08:25:03;;;;;;;4.35;1.83;;;11.90;93.40;;;;;;5027614;28;20025;-72
2023/01/07 08:27:29;;;;;;;4.25;2.25;;;12.00;93.90;;;;;;5034208;28;21915;-71
2023/01/07 08:29:55;;;;;;;4.35;1.80;;;12.00;93.50;;;;;;5033635;28;20033;-71
2023/01/07 08:32:21;;;;;;;3.08;1.60;;;11.90;93.30;;;;;;5015181;28;20025;-72
2023/01/07 08:34:47;;;;;;;3.53;1.58;;;11.90;93.40;;;;;;5036004;28;20033;-71
2023/01/07 08:37:12;;;;;;;5.03;1.70;;;11.90;93.50;;;;;;5018468;28;20035;-72
2023/01/07 08:39:38;;;;;;;2.28;1.55;;;11.90;93.20;;;;;;5029235;28;20038;-72
2023/01/07 08:42:04;;;;;;;3.95;1.77;;;11.90;93.40;;;;;;5033818;28;20037;-72
2023/01/07 08:44:30;;;;;;;2.47;1.50;;;12.00;93.10;;;;;;5032017;28;20071;-71
2023/01/07 08:46:55;;;;;;;3.38;2.00;;;12.00;92.90;;;;;;5031871;28;20091;-72
2023/01/07 08:49:21;;;;;;;3.50;1.95;;;11.90;92.70;;;;;;5041928;28;20035;-73
2023/01/07 08:51:47;;;;;;;3.45;1.50;;;12.00;93.00;;;;;;5035249;28;20125;-73
2023/01/07 08:54:13;;;;;;;5.45;1.63;;;12.00;93.20;;;;;;5027776;28;20028;-73
2023/01/07 08:56:38;;;;;;;3.75;1.60;;;11.90;92.70;;;;;;5031125;28;20398;-72
2023/01/07 08:59:04;;;;;;;4.20;1.80;;;12.00;92.70;;;;;;5037925;28;20084;-72
2023/01/07 09:01:30;;;;;;;5.78;1.90;;;12.00;92.60;;;;;;5022228;28;20532;-73
2023/01/07 09:03:55;;;;;;;6.68;1.63;;;12.00;92.70;;;;;;5042514;28;20392;-73
2023/01/07 09:06:22;;;;;;;2.65;1.25;;;12.10;93.20;;;;;;5038738;28;20104;-73
2023/01/07 09:08:48;;;;;;;4.15;1.50;;;12.10;93.30;;;;;;5041101;28;20483;-73
2023/01/07 09:11:14;;;;;;;4.22;2.05;;;12.10;93.30;;;;;;5036069;28;20032;-73
2023/01/07 09:13:40;;;;;;;3.42;1.55;;;12.10;92.90;;;;;;5040093;28;20034;-73
2023/01/07 09:16:05;;;;;;;3.75;1.70;;;12.10;92.70;;;;;;5037158;28;20021;-72
2023/01/07 09:18:31;;;;;;;3.70;1.33;;;12.10;93.00;;;;;;5034685;28;20036;-72
2023/01/07 09:20:58;;;;;;;3.97;1.40;;;12.20;93.00;;;;;;5037579;28;20025;-72
2023/01/07 09:23:23;;;;;;;2.70;1.30;;;12.20;92.70;;;;;;5040374;28;20850;-72
2023/01/07 09:25:49;;;;;;;5.47;1.52;;;12.20;92.40;;;;;;5046633;28;20041;-72
2023/01/07 09:28:15;;;;;;;5.63;1.52;;;12.20;92.30;;;;;;5034352;28;20630;-72
2023/01/07 09:30:40;;;;;;;5.50;1.90;;;12.20;92.40;;;;;;5039280;28;20023;-72
2023/01/07 09:33:06;;;;;;;3.42;1.63;;;12.20;92.60;;;;;;5036354;28;20033;-71
2023/01/07 09:35:32;;;;;;;6.30;1.60;;;12.30;93.20;;;;;;5031160;28;20039;-72
2023/01/07 09:37:58;;;;;;;4.85;2.03;;;12.20;92.40;;;;;;5035613;28;20041;-73
2023/01/07 09:40:25;;;;;;;3.90;1.70;;;12.10;91.90;;;;;;5043504;28;20037;-72
2023/01/07 09:43:27;;;;;;;4.95;2.20;;;12.20;92.20;;;;;;5036329;28;20150;-72
2023/01/07 09:45:55;;;;;;;4.28;1.60;;;12.20;92.90;;;;;;5038167;28;20019;-72
2023/01/07 09:48:34;;;;;;;5.53;1.40;;;12.20;92.00;;;;;;5017993;28;20946;-72
2023/01/07 09:51:26;;;;;;;4.80;1.60;;;12.20;92.60;;;;;;5038729;28;20029;-72
2023/01/07 09:53:56;;;;;;;5.22;1.60;;;12.20;92.20;;;;;;5034449;28;20037;-72
2023/01/07 09:56:28;;;;;;;7.20;1.80;;;12.20;92.10;;;;;;5039437;28;20083;-73
2023/01/07 09:58:56;;;;;;;3.63;1.60;;;12.30;92.40;;;;;;5035902;28;20066;-73
2023/01/07 10:01:24;;;;;;;3.95;1.50;;;12.30;91.90;;;;;;5027853;28;20384;-73
2023/01/07 10:04:12;;;;;;;2.83;1.40;;;12.30;92.00;;;;;;5035984;28;20040;-73
2023/01/07 10:07:26;;;;;;;4.18;2.00;;;12.30;92.10;;;;;;5038214;28;20021;-73
2023/01/07 10:10:07;;;;;;;2.72;1.65;;;12.30;91.90;;;;;;5032552;28;20037;-72
2023/01/07 10:12:58;;;;;;;3.95;1.95;;;12.30;91.60;;;;;;5034859;28;20025;-72
2023/01/07 10:15:40;;;;;;;3.13;1.52;;;12.40;92.00;;;;;;5012490;28;20034;-72
2023/01/07 10:18:39;;;;;;;3.45;1.60;;;12.40;91.60;;;;;;5040400;28;20566;-72
2023/01/07 10:21:43;;;;;;;3.83;1.20;;;12.40;91.30;;;;;;5015030;28;20483;-73
2023/01/07 10:24:27;;;;;;;4.00;1.70;;;12.40;91.30;;;;;;5027088;28;20045;-73
2023/01/07 10:27:00;;;;;;;2.50;1.58;;;12.40;90.80;;;;;;5033480;28;20053;-73
2023/01/07 10:29:40;;;;;;;3.03;1.73;;;12.40;91.80;;;;;;5032769;28;20045;-72
2023/01/07 10:32:10;;;;;;;;;;;12.40;91.00;;;;;;5039448;28;20032;-72
2023/01/07 10:34:43;;;;;;;2.50;1.17;;;12.40;90.50;;;;;;5036874;28;19924;-73
2023/01/07 10:37:32;;;;;;;3.80;1.20;;;12.40;90.00;;;;;;5040040;28;20040;-72
2023/01/07 10:40:17;;;;;;;3.33;1.40;;;12.40;90.90;;;;;;5036298;28;20502;-73
2023/01/07 10:43:02;;;;;;;3.20;1.50;;;12.50;90.50;;;;;;5032903;28;20025;-73
2023/01/07 10:45:39;;;;;;;2.13;1.17;;;12.50;90.60;;;;;;5037642;28;20036;-73
2023/01/07 10:48:06;;;;;;;3.85;1.35;;;12.60;91.50;;;;;;5042205;28;20527;-72
2023/01/07 10:51:00;;;;;;;1.92;1.20;;;12.60;90.10;;;;;;5035641;28;20121;-72
2023/01/07 10:53:28;;;;;;;3.30;1.35;;;12.80;90.90;;;;;;5036947;28;20028;-72
2023/01/07 10:56:12;;;;;;;2.25;1.10;;;13.30;88.00;;;;;;5033458;28;20716;-73
2023/01/07 10:58:43;;;;;;;2.78;1.00;;;13.70;86.70;;;;;;5035704;28;20040;-73
2023/01/07 11:01:17;;;;;;;3.65;1.08;;;14.10;85.70;;;;;;5031005;28;20477;-73
2023/01/07 11:03:43;;;;;;;4.45;1.00;;;14.50;84.10;;;;;;5016713;28;20733;-74
2023/01/07 11:06:13;;;;;;;2.83;1.13;;;14.70;83.00;;;;;;5014789;28;20021;-75
2023/01/07 11:08:41;;;;;;;2.75;1.10;;;14.80;84.50;;;;;;5009794;28;20059;-76
2023/01/07 11:11:14;;;;;;;1.88;0.93;;;15.00;79.90;;;;;;5027743;28;20017;-74
2023/01/07 11:13:42;;;;;;;3.55;0.88;;;15.10;78.90;;;;;;5034532;28;20057;-75
2023/01/07 11:16:08;;;;;;;2.78;1.00;;;15.30;79.60;;;;;;5031222;28;20032;-73
2023/01/07 11:18:43;;;;;;;2.92;1.10;;;15.60;77.80;;;;;;5026302;28;20042;-73
2023/01/07 11:21:09;;;;;;;2.47;1.10;;;15.90;75.90;;;;;;5027218;28;20025;-74
2023/01/07 11:23:38;;;;;;;3.55;1.00;;;16.00;76.30;;;;;;5030273;28;20027;-74
2023/01/07 11:26:18;;;;;;;5.13;1.05;;;16.00;75.80;;;;;;5011273;28;20766;-74
2023/01/07 11:29:15;;;;;;;2.58;0.80;;;15.90;82.00;;;;;;5029841;28;20109;-71
2023/01/07 11:32:04;;;;;;;3.50;1.00;;;15.60;75.50;;;;;;5017056;28;20064;-72
2023/01/07 11:34:51;;;;;;;2.58;0.90;;;15.30;80.00;;;;;;5030078;28;20664;-72
2023/01/07 11:37:39;;;;;;;3.05;1.05;;;15.10;80.00;;;;;;5024326;28;20041;-72
2023/01/07 11:40:11;;;;;;;1.90;0.80;;;14.70;80.30;;;;;;5032136;28;20029;-72
2023/01/07 11:43:00;;;;;;;2.40;0.93;;;14.70;80.70;;;;;;5028269;28;20379;-73
2023/01/07 11:45:35;;;;;;;2.10;1.00;;;14.50;78.40;;;;;;5029247;28;20025;-73
2023/01/07 11:48:09;;;;;;;4.47;1.33;;;14.60;80.70;;;;;;5012454;28;20029;-74
2023/01/07 11:50:34;;;;;;;2.72;1.05;;;14.70;80.70;;;;;;5026476;28;20104;-74
2023/01/07 11:53:10;;;;;;;4.05;1.10;;;14.60;77.20;;;;;;5027730;28;20155;-74
2023/01/07 11:55:36;;;;;;;2.30;1.00;;;14.70;81.70;;;;;;5031384;28;20029;-73
2023/01/07 11:58:01;;;;;;;2.15;1.00;;;14.80;81.80;;;;;;5028349;28;20048;-75
2023/01/07 12:00:30;;;;;;;3.05;1.10;;;14.90;81.00;;;;;;5011677;28;21640;-74
2023/01/07 12:03:12;;;;;;;2.58;1.17;;;14.80;81.20;;;;;;5031857;28;20025;-74
2023/01/07 12:05:40;;;;;;;3.13;1.08;;;14.60;84.60;;;;;;5013028;28;20076;-74
2023/01/07 12:08:17;;;;;;;2.70;1.30;;;14.60;77.60;;;;;;5010698;28;20051;-73
2023/01/07 12:10:43;;;;;;;3.00;1.38;;;14.80;82.50;;;;;;5028090;28;20029;-73
2023/01/07 12:13:22;;;;;;;1.83;0.95;;;14.90;79.40;;;;;;5027536;28;20543;-74
2023/01/07 12:15:52;;;;;;;3.58;1.40;;;15.00;79.70;;;;;;5027181;28;20071;-74
2023/01/07 12:18:40;;;;;;;2.80;1.48;;;15.30;78.50;;;;;;5028037;28;20040;-75
2023/01/07 12:21:24;;;;;;;2.28;1.10;;;15.50;76.60;;;;;;5027719;28;20822;-74
2023/01/07 12:24:23;;;;;;;2.38;0.90;;;15.80;74.70;;;;;;5031452;28;20112;-74
2023/01/07 12:27:07;;;;;;;2.20;0.87;;;15.70;80.10;;;;;;5029518;28;20049;-75
2023/01/07 12:30:10;;;;;;;3.22;1.35;;;15.60;80.80;;;;;;5029352;28;20040;-75
2023/01/07 12:33:23;;;;;;;2.47;0.95;;;15.70;76.30;;;;;;5030295;28;20025;-74
2023/01/07 12:35:49;;;;;;;2.58;1.05;;;15.80;81.30;;;;;;4973349;28;20031;-74
2023/01/07 12:38:31;;;;;;;2.45;0.90;;;15.80;75.60;;;;;;5023514;28;20041;-74
2023/01/07 12:41:04;;;;;;;2.25;1.02;;;15.80;74.00;;;;;;5032727;28;20029;-74
2023/01/07 12:43:39;;;;;;;2.53;1.10;;;15.90;74.50;;;;;;5030452;28;20022;-74
2023/01/07 12:46:10;;;;;;;2.80;1.25;;;16.00;81.20;;;;;;5028819;28;20044;-74
2023/01/07 12:48:54;;;;;;;2.58;1.02;;;15.90;80.90;;;;;;5026606;28;20401;-73
2023/01/07 12:51:32;;;;;;;1.90;0.93;;;15.90;77.70;;;;;;5017027;28;20511;-74
2023/01/07 12:54:03;;;;;;;3.58;1.23;;;15.70;72.10;;;;;;5032858;28;20021;-73
2023/01/07 12:56:55;;;;;;;2.83;1.30;;;15.60;75.00;;;;;;5032114;28;20052;-74
2023/01/07 12:59:30;;;;;;;3.92;1.27;;;15.50;74.70;;;;;;5032831;28;20025;-74
2023/01/07 13:02:19;;;;;;;3.20;1.33;;;15.80;80.50;;;;;;5031552;28;20033;-74